sensor_id;sensor_type;location;lat;lon;timestamp;P1;durP1;ratioP1;P2;durP2;ratioP2
5730;SDS011;2890;51.950;7.668;2023-09-18T00:02:08;8.67;;;7.87;;
5730;SDS011;2890;51.950;7.668;2023-09-18T00:04:40;8.97;;;8.20;;
5730;SDS011;2890;51.950;7.668;2023-09-18T00:07:13;8.80;;;8.20;;
5730;SDS011;2890;51.950;7.668;2023-09-18T00:09:46;8.43;;;7.93;;
5730;SDS011;2890;51.950;7.668;2023-09-18T00:12:19;8.87;;;8.07;;
5730;SDS011;2890;51.950;7.668;2023-09-18T00:14:51;9.90;;;8.70;;
5730;SDS011;2890;51.950;7.668;2023-09-18T00:17:24;8.20;;;7.60;;
5730;SDS011;2890;51.950;7.668;2023-09-18T00:19:56;10.30;;;8.70;;
5730;SDS011;2890;51.950;7.668;2023-09-18T00:22:33;8.80;;;8.10;;
5730;SDS011;2890;51.950;7.668;2023-09-18T00:25:06;8.87;;;8.30;;
5730;SDS011;2890;51.950;7.668;2023-09-18T00:27:40;8.87;;;8.13;;
5730;SDS011;2890;51.950;7.668;2023-09-18T00:30:12;12.57;;;8.47;;
5730;SDS011;2890;51.950;7.668;2023-09-18T00:32:45;9.17;;;8.17;;
5730;SDS011;2890;51.950;7.668;2023-09-18T00:35:17;9.27;;;8.57;;
5730;SDS011;2890;51.950;7.668;2023-09-18T00:37:51;9.90;;;7.63;;
5730;SDS011;2890;51.950;7.668;2023-09-18T00:40:23;9.43;;;8.43;;
5730;SDS011;2890;51.950;7.668;2023-09-18T00:42:56;9.40;;;8.40;;
5730;SDS011;2890;51.950;7.668;2023-09-18T00:45:28;9.23;;;7.77;;
5730;SDS011;2890;51.950;7.668;2023-09-18T00:48:01;9.13;;;8.30;;
5730;SDS011;2890;51.950;7.668;2023-09-18T00:50:34;9.97;;;8.97;;
5730;SDS011;2890;51.950;7.668;2023-09-18T00:53:08;8.73;;;8.07;;
5730;SDS011;2890;51.950;7.668;2023-09-18T00:55:43;9.13;;;8.43;;
5730;SDS011;2890;51.950;7.668;2023-09-18T00:58:18;7.87;;;7.33;;
5730;SDS011;2890;51.950;7.668;2023-09-18T01:00:51;8.87;;;8.27;;
5730;SDS011;2890;51.950;7.668;2023-09-18T01:03:23;9.30;;;8.40;;
5730;SDS011;2890;51.950;7.668;2023-09-18T01:05:56;8.80;;;8.10;;
5730;SDS011;2890;51.950;7.668;2023-09-18T01:08:30;8.57;;;7.97;;
5730;SDS011;2890;51.950;7.668;2023-09-18T01:11:04;9.70;;;8.73;;
5730;SDS011;2890;51.950;7.668;2023-09-18T01:13:41;10.27;;;9.23;;
5730;SDS011;2890;51.950;7.668;2023-09-18T01:16:20;9.77;;;8.93;;
5730;SDS011;2890;51.950;7.668;2023-09-18T01:18:58;10.63;;;9.60;;
5730;SDS011;2890;51.950;7.668;2023-09-18T01:21:31;10.47;;;9.40;;
5730;SDS011;2890;51.950;7.668;2023-09-18T01:24:05;9.07;;;8.27;;
5730;SDS011;2890;51.950;7.668;2023-09-18T01:26:37;9.87;;;9.00;;
5730;SDS011;2890;51.950;7.668;2023-09-18T01:29:10;9.67;;;8.87;;
5730;SDS011;2890;51.950;7.668;2023-09-18T01:31:44;12.30;;;9.07;;
5730;SDS011;2890;51.950;7.668;2023-09-18T01:34:17;10.40;;;9.50;;
5730;SDS011;2890;51.950;7.668;2023-09-18T01:36:52;17.23;;;10.30;;
5730;SDS011;2890;51.950;7.668;2023-09-18T01:39:27;12.87;;;9.40;;
5730;SDS011;2890;51.950;7.668;2023-09-18T01:42:00;9.90;;;8.97;;
5730;SDS011;2890;51.950;7.668;2023-09-18T01:44:34;10.23;;;9.53;;
5730;SDS011;2890;51.950;7.668;2023-09-18T01:47:08;10.50;;;8.53;;
5730;SDS011;2890;51.950;7.668;2023-09-18T01:49:43;10.63;;;9.53;;
5730;SDS011;2890;51.950;7.668;2023-09-18T01:52:15;10.00;;;9.13;;
5730;SDS011;2890;51.950;7.668;2023-09-18T01:54:49;9.83;;;9.10;;
5730;SDS011;2890;51.950;7.668;2023-09-18T01:57:22;9.67;;;8.83;;
5730;SDS011;2890;51.950;7.668;2023-09-18T01:59:54;10.93;;;9.83;;
5730;SDS011;2890;51.950;7.668;2023-09-18T02:02:32;11.33;;;10.20;;
5730;SDS011;2890;51.950;7.668;2023-09-18T02:05:05;10.87;;;9.90;;
5730;SDS011;2890;51.950;7.668;2023-09-18T02:07:38;12.23;;;9.80;;
5730;SDS011;2890;51.950;7.668;2023-09-18T02:10:12;11.83;;;9.80;;
5730;SDS011;2890;51.950;7.668;2023-09-18T02:12:45;10.80;;;10.00;;
5730;SDS011;2890;51.950;7.668;2023-09-18T02:15:17;11.40;;;10.40;;
5730;SDS011;2890;51.950;7.668;2023-09-18T02:17:50;12.17;;;10.97;;
5730;SDS011;2890;51.950;7.668;2023-09-18T02:20:22;13.00;;;11.40;;
5730;SDS011;2890;51.950;7.668;2023-09-18T02:22:55;17.10;;;9.73;;
5730;SDS011;2890;51.950;7.668;2023-09-18T02:25:29;11.00;;;10.00;;
5730;SDS011;2890;51.950;7.668;2023-09-18T02:28:01;12.47;;;10.00;;
5730;SDS011;2890;51.950;7.668;2023-09-18T02:30:34;11.40;;;10.23;;
5730;SDS011;2890;51.950;7.668;2023-09-18T02:33:07;14.20;;;10.40;;
5730;SDS011;2890;51.950;7.668;2023-09-18T02:35:41;12.00;;;11.00;;
5730;SDS011;2890;51.950;7.668;2023-09-18T02:38:13;11.50;;;10.53;;
5730;SDS011;2890;51.950;7.668;2023-09-18T02:40:47;10.80;;;10.10;;
5730;SDS011;2890;51.950;7.668;2023-09-18T02:43:20;11.47;;;10.40;;
5730;SDS011;2890;51.950;7.668;2023-09-18T02:45:53;15.07;;;11.17;;
5730;SDS011;2890;51.950;7.668;2023-09-18T02:48:25;11.37;;;10.10;;
5730;SDS011;2890;51.950;7.668;2023-09-18T02:50:58;12.37;;;10.40;;
5730;SDS011;2890;51.950;7.668;2023-09-18T02:53:31;12.60;;;10.57;;
5730;SDS011;2890;51.950;7.668;2023-09-18T02:56:05;11.93;;;9.60;;
5730;SDS011;2890;51.950;7.668;2023-09-18T02:58:37;12.27;;;10.97;;
5730;SDS011;2890;51.950;7.668;2023-09-18T03:01:10;14.03;;;10.57;;
5730;SDS011;2890;51.950;7.668;2023-09-18T03:03:42;12.00;;;10.60;;
5730;SDS011;2890;51.950;7.668;2023-09-18T03:06:15;12.30;;;10.23;;
5730;SDS011;2890;51.950;7.668;2023-09-18T03:08:47;14.23;;;10.50;;
5730;SDS011;2890;51.950;7.668;2023-09-18T03:11:21;11.03;;;9.97;;
5730;SDS011;2890;51.950;7.668;2023-09-18T03:13:54;11.37;;;10.23;;
5730;SDS011;2890;51.950;7.668;2023-09-18T03:16:21;11.73;;;10.47;;
5730;SDS011;2890;51.950;7.668;2023-09-18T03:18:53;11.53;;;10.37;;
5730;SDS011;2890;51.950;7.668;2023-09-18T03:21:26;10.67;;;9.60;;
5730;SDS011;2890;51.950;7.668;2023-09-18T03:24:00;10.60;;;9.43;;
5730;SDS011;2890;51.950;7.668;2023-09-18T03:26:35;11.20;;;9.10;;
5730;SDS011;2890;51.950;7.668;2023-09-18T03:29:07;10.87;;;9.77;;
5730;SDS011;2890;51.950;7.668;2023-09-18T03:31:40;12.33;;;9.87;;
5730;SDS011;2890;51.950;7.668;2023-09-18T03:34:12;15.33;;;10.27;;
5730;SDS011;2890;51.950;7.668;2023-09-18T03:36:45;11.23;;;10.17;;
5730;SDS011;2890;51.950;7.668;2023-09-18T03:39:18;11.13;;;10.23;;
5730;SDS011;2890;51.950;7.668;2023-09-18T03:41:52;15.40;;;10.27;;
5730;SDS011;2890;51.950;7.668;2023-09-18T03:44:24;11.13;;;10.03;;
5730;SDS011;2890;51.950;7.668;2023-09-18T03:46:58;15.57;;;9.87;;
5730;SDS011;2890;51.950;7.668;2023-09-18T03:49:31;9.80;;;9.10;;
5730;SDS011;2890;51.950;7.668;2023-09-18T03:52:04;11.80;;;10.33;;
5730;SDS011;2890;51.950;7.668;2023-09-18T03:54:36;10.10;;;8.87;;
5730;SDS011;2890;51.950;7.668;2023-09-18T03:57:10;12.23;;;9.60;;
5730;SDS011;2890;51.950;7.668;2023-09-18T03:59:42;13.43;;;9.87;;
5730;SDS011;2890;51.950;7.668;2023-09-18T04:02:15;10.97;;;10.03;;
5730;SDS011;2890;51.950;7.668;2023-09-18T04:04:47;10.47;;;9.40;;
5730;SDS011;2890;51.950;7.668;2023-09-18T04:07:20;11.03;;;9.90;;
5730;SDS011;2890;51.950;7.668;2023-09-18T04:09:53;11.40;;;9.40;;
5730;SDS011;2890;51.950;7.668;2023-09-18T04:12:26;15.50;;;10.67;;
5730;SDS011;2890;51.950;7.668;2023-09-18T04:14:59;10.27;;;9.37;;
5730;SDS011;2890;51.950;7.668;2023-09-18T04:17:32;10.60;;;9.63;;
5730;SDS011;2890;51.950;7.668;2023-09-18T04:20:05;11.27;;;9.13;;
5730;SDS011;2890;51.950;7.668;2023-09-18T04:22:42;10.43;;;9.50;;
5730;SDS011;2890;51.950;7.668;2023-09-18T04:25:35;11.10;;;10.03;;
5730;SDS011;2890;51.950;7.668;2023-09-18T04:28:08;13.47;;;9.93;;
5730;SDS011;2890;51.950;7.668;2023-09-18T04:30:42;13.10;;;10.03;;
5730;SDS011;2890;51.950;7.668;2023-09-18T04:33:15;10.67;;;8.53;;
5730;SDS011;2890;51.950;7.668;2023-09-18T04:35:47;13.23;;;9.07;;
5730;SDS011;2890;51.950;7.668;2023-09-18T04:38:20;14.67;;;9.03;;
5730;SDS011;2890;51.950;7.668;2023-09-18T04:40:56;9.33;;;8.53;;
5730;SDS011;2890;51.950;7.668;2023-09-18T04:43:31;12.40;;;8.47;;
5730;SDS011;2890;51.950;7.668;2023-09-18T04:45:57;10.03;;;8.97;;
5730;SDS011;2890;51.950;7.668;2023-09-18T04:48:23;15.47;;;8.90;;
5730;SDS011;2890;51.950;7.668;2023-09-18T04:50:50;8.77;;;8.07;;
5730;SDS011;2890;51.950;7.668;2023-09-18T04:53:16;9.90;;;8.97;;
5730;SDS011;2890;51.950;7.668;2023-09-18T04:55:43;13.43;;;9.73;;
5730;SDS011;2890;51.950;7.668;2023-09-18T04:58:11;9.50;;;8.60;;
5730;SDS011;2890;51.950;7.668;2023-09-18T05:00:39;9.20;;;8.40;;
5730;SDS011;2890;51.950;7.668;2023-09-18T05:03:06;12.83;;;9.23;;
5730;SDS011;2890;51.950;7.668;2023-09-18T05:05:33;9.00;;;8.30;;
5730;SDS011;2890;51.950;7.668;2023-09-18T05:08:00;10.03;;;8.63;;
5730;SDS011;2890;51.950;7.668;2023-09-18T05:10:29;10.80;;;9.83;;
5730;SDS011;2890;51.950;7.668;2023-09-18T05:12:56;9.03;;;7.60;;
5730;SDS011;2890;51.950;7.668;2023-09-18T05:15:24;11.53;;;8.23;;
5730;SDS011;2890;51.950;7.668;2023-09-18T05:17:52;8.13;;;7.40;;
5730;SDS011;2890;51.950;7.668;2023-09-18T05:20:22;8.63;;;7.93;;
5730;SDS011;2890;51.950;7.668;2023-09-18T05:22:50;8.27;;;7.57;;
5730;SDS011;2890;51.950;7.668;2023-09-18T05:25:18;8.90;;;7.10;;
5730;SDS011;2890;51.950;7.668;2023-09-18T05:27:46;7.53;;;6.50;;
5730;SDS011;2890;51.950;7.668;2023-09-18T05:30:13;7.90;;;7.10;;
5730;SDS011;2890;51.950;7.668;2023-09-18T05:32:41;7.70;;;6.80;;
5730;SDS011;2890;51.950;7.668;2023-09-18T05:35:09;7.37;;;6.70;;
5730;SDS011;2890;51.950;7.668;2023-09-18T05:37:37;7.37;;;6.63;;
5730;SDS011;2890;51.950;7.668;2023-09-18T05:40:05;7.93;;;6.50;;
5730;SDS011;2890;51.950;7.668;2023-09-18T05:42:34;9.33;;;6.23;;
5730;SDS011;2890;51.950;7.668;2023-09-18T05:45:01;8.63;;;5.50;;
5730;SDS011;2890;51.950;7.668;2023-09-18T05:47:29;8.10;;;5.50;;
5730;SDS011;2890;51.950;7.668;2023-09-18T05:49:55;8.20;;;6.30;;
5730;SDS011;2890;51.950;7.668;2023-09-18T05:52:23;11.20;;;5.33;;
5730;SDS011;2890;51.950;7.668;2023-09-18T05:54:50;7.10;;;5.13;;
5730;SDS011;2890;51.950;7.668;2023-09-18T05:57:17;9.73;;;5.30;;
5730;SDS011;2890;51.950;7.668;2023-09-18T05:59:44;8.27;;;4.73;;
5730;SDS011;2890;51.950;7.668;2023-09-18T06:02:10;12.50;;;5.03;;
5730;SDS011;2890;51.950;7.668;2023-09-18T06:04:37;12.13;;;5.03;;
5730;SDS011;2890;51.950;7.668;2023-09-18T06:07:03;11.23;;;6.13;;
5730;SDS011;2890;51.950;7.668;2023-09-18T06:09:31;13.40;;;5.33;;
5730;SDS011;2890;51.950;7.668;2023-09-18T06:11:58;10.73;;;5.00;;
5730;SDS011;2890;51.950;7.668;2023-09-18T06:14:25;10.80;;;5.93;;
5730;SDS011;2890;51.950;7.668;2023-09-18T06:16:52;7.50;;;4.70;;
5730;SDS011;2890;51.950;7.668;2023-09-18T06:19:18;15.47;;;5.67;;
5730;SDS011;2890;51.950;7.668;2023-09-18T06:21:45;9.67;;;5.50;;
5730;SDS011;2890;51.950;7.668;2023-09-18T06:24:11;10.33;;;5.83;;
5730;SDS011;2890;51.950;7.668;2023-09-18T06:26:40;15.80;;;6.03;;
5730;SDS011;2890;51.950;7.668;2023-09-18T06:29:06;11.63;;;5.60;;
5730;SDS011;2890;51.950;7.668;2023-09-18T06:31:34;11.83;;;5.43;;
5730;SDS011;2890;51.950;7.668;2023-09-18T06:34:06;7.63;;;5.30;;
5730;SDS011;2890;51.950;7.668;2023-09-18T06:36:33;7.20;;;5.10;;
5730;SDS011;2890;51.950;7.668;2023-09-18T06:38:59;7.43;;;4.97;;
5730;SDS011;2890;51.950;7.668;2023-09-18T06:41:26;13.43;;;5.80;;
5730;SDS011;2890;51.950;7.668;2023-09-18T06:43:53;13.27;;;5.47;;
5730;SDS011;2890;51.950;7.668;2023-09-18T06:46:20;8.40;;;5.10;;
5730;SDS011;2890;51.950;7.668;2023-09-18T06:48:46;10.20;;;5.17;;
5730;SDS011;2890;51.950;7.668;2023-09-18T06:51:14;11.00;;;5.20;;
5730;SDS011;2890;51.950;7.668;2023-09-18T06:53:40;8.00;;;5.40;;
5730;SDS011;2890;51.950;7.668;2023-09-18T06:56:07;10.97;;;4.97;;
5730;SDS011;2890;51.950;7.668;2023-09-18T06:58:34;12.40;;;5.27;;
5730;SDS011;2890;51.950;7.668;2023-09-18T07:01:03;9.93;;;5.10;;
5730;SDS011;2890;51.950;7.668;2023-09-18T07:03:31;8.63;;;5.63;;
5730;SDS011;2890;51.950;7.668;2023-09-18T07:06:02;8.90;;;4.63;;
5730;SDS011;2890;51.950;7.668;2023-09-18T07:08:32;8.63;;;4.40;;
5730;SDS011;2890;51.950;7.668;2023-09-18T07:11:00;8.27;;;4.30;;
5730;SDS011;2890;51.950;7.668;2023-09-18T07:13:34;9.60;;;4.90;;
5730;SDS011;2890;51.950;7.668;2023-09-18T07:16:40;15.63;;;5.13;;
5730;SDS011;2890;51.950;7.668;2023-09-18T07:19:35;10.13;;;4.57;;
5730;SDS011;2890;51.950;7.668;2023-09-18T07:22:27;13.43;;;5.00;;
5730;SDS011;2890;51.950;7.668;2023-09-18T07:25:20;7.53;;;4.90;;
5730;SDS011;2890;51.950;7.668;2023-09-18T07:27:46;12.30;;;4.57;;
5730;SDS011;2890;51.950;7.668;2023-09-18T07:30:13;10.23;;;4.80;;
5730;SDS011;2890;51.950;7.668;2023-09-18T07:32:43;14.10;;;5.20;;
5730;SDS011;2890;51.950;7.668;2023-09-18T07:35:13;10.53;;;4.70;;
5730;SDS011;2890;51.950;7.668;2023-09-18T07:37:44;9.47;;;4.40;;
5730;SDS011;2890;51.950;7.668;2023-09-18T07:40:15;12.63;;;4.57;;
5730;SDS011;2890;51.950;7.668;2023-09-18T07:42:51;13.13;;;4.30;;
5730;SDS011;2890;51.950;7.668;2023-09-18T07:45:17;14.00;;;4.90;;
5730;SDS011;2890;51.950;7.668;2023-09-18T07:47:45;10.83;;;4.70;;
5730;SDS011;2890;51.950;7.668;2023-09-18T07:50:24;9.10;;;5.00;;
5730;SDS011;2890;51.950;7.668;2023-09-18T07:52:52;7.73;;;4.33;;
5730;SDS011;2890;51.950;7.668;2023-09-18T07:55:18;9.73;;;3.77;;
5730;SDS011;2890;51.950;7.668;2023-09-18T07:57:48;6.40;;;4.00;;
5730;SDS011;2890;51.950;7.668;2023-09-18T08:00:14;7.70;;;4.40;;
5730;SDS011;2890;51.950;7.668;2023-09-18T08:02:42;10.03;;;4.23;;
5730;SDS011;2890;51.950;7.668;2023-09-18T08:05:14;15.10;;;4.63;;
5730;SDS011;2890;51.950;7.668;2023-09-18T08:07:44;11.40;;;3.70;;
5730;SDS011;2890;51.950;7.668;2023-09-18T08:10:16;16.13;;;3.90;;
5730;SDS011;2890;51.950;7.668;2023-09-18T08:12:43;4.93;;;3.30;;
5730;SDS011;2890;51.950;7.668;2023-09-18T08:15:18;8.10;;;3.90;;
5730;SDS011;2890;51.950;7.668;2023-09-18T08:17:50;8.43;;;3.70;;
5730;SDS011;2890;51.950;7.668;2023-09-18T08:20:23;5.40;;;3.60;;
5730;SDS011;2890;51.950;7.668;2023-09-18T08:22:55;5.57;;;3.50;;
5730;SDS011;2890;51.950;7.668;2023-09-18T08:25:26;6.93;;;3.43;;
5730;SDS011;2890;51.950;7.668;2023-09-18T08:27:57;7.53;;;3.60;;
5730;SDS011;2890;51.950;7.668;2023-09-18T08:30:29;5.23;;;3.57;;
5730;SDS011;2890;51.950;7.668;2023-09-18T08:33:03;6.63;;;3.10;;
5730;SDS011;2890;51.950;7.668;2023-09-18T08:35:34;5.60;;;3.47;;
5730;SDS011;2890;51.950;7.668;2023-09-18T08:38:05;5.83;;;3.70;;
5730;SDS011;2890;51.950;7.668;2023-09-18T08:40:32;11.90;;;3.90;;
5730;SDS011;2890;51.950;7.668;2023-09-18T08:42:59;7.10;;;3.30;;
5730;SDS011;2890;51.950;7.668;2023-09-18T08:45:30;9.73;;;3.70;;
5730;SDS011;2890;51.950;7.668;2023-09-18T08:48:04;5.90;;;3.30;;
5730;SDS011;2890;51.950;7.668;2023-09-18T08:50:32;7.87;;;3.43;;
5730;SDS011;2890;51.950;7.668;2023-09-18T08:52:59;6.27;;;3.03;;
5730;SDS011;2890;51.950;7.668;2023-09-18T08:55:26;5.73;;;3.00;;
5730;SDS011;2890;51.950;7.668;2023-09-18T08:57:53;5.40;;;3.10;;
5730;SDS011;2890;51.950;7.668;2023-09-18T09:00:19;4.67;;;3.30;;
5730;SDS011;2890;51.950;7.668;2023-09-18T09:02:49;9.10;;;3.13;;
5730;SDS011;2890;51.950;7.668;2023-09-18T09:05:22;4.27;;;3.17;;
5730;SDS011;2890;51.950;7.668;2023-09-18T09:07:53;4.23;;;2.90;;
5730;SDS011;2890;51.950;7.668;2023-09-18T09:10:19;5.70;;;2.87;;
5730;SDS011;2890;51.950;7.668;2023-09-18T09:12:52;5.70;;;2.70;;
5730;SDS011;2890;51.950;7.668;2023-09-18T09:15:27;4.67;;;2.80;;
5730;SDS011;2890;51.950;7.668;2023-09-18T09:18:02;6.00;;;2.60;;
5730;SDS011;2890;51.950;7.668;2023-09-18T09:20:31;4.50;;;3.30;;
5730;SDS011;2890;51.950;7.668;2023-09-18T09:23:02;4.07;;;2.93;;
5730;SDS011;2890;51.950;7.668;2023-09-18T09:25:30;9.13;;;2.90;;
5730;SDS011;2890;51.950;7.668;2023-09-18T09:27:59;4.53;;;2.40;;
5730;SDS011;2890;51.950;7.668;2023-09-18T09:30:32;4.07;;;3.10;;
5730;SDS011;2890;51.950;7.668;2023-09-18T09:33:01;4.00;;;3.10;;
5730;SDS011;2890;51.950;7.668;2023-09-18T09:35:31;4.33;;;3.07;;
5730;SDS011;2890;51.950;7.668;2023-09-18T09:37:59;6.07;;;2.97;;
5730;SDS011;2890;51.950;7.668;2023-09-18T09:40:38;6.40;;;3.03;;
5730;SDS011;2890;51.950;7.668;2023-09-18T09:43:11;5.80;;;2.90;;
5730;SDS011;2890;51.950;7.668;2023-09-18T09:45:41;3.33;;;2.83;;
5730;SDS011;2890;51.950;7.668;2023-09-18T09:48:08;4.00;;;2.60;;
5730;SDS011;2890;51.950;7.668;2023-09-18T09:50:45;7.20;;;2.70;;
5730;SDS011;2890;51.950;7.668;2023-09-18T09:53:20;3.70;;;2.87;;
5730;SDS011;2890;51.950;7.668;2023-09-18T09:56:13;6.10;;;2.80;;
5730;SDS011;2890;51.950;7.668;2023-09-18T09:58:59;5.40;;;3.00;;
5730;SDS011;2890;51.950;7.668;2023-09-18T10:01:33;3.03;;;2.40;;
5730;SDS011;2890;51.950;7.668;2023-09-18T10:04:08;3.40;;;2.67;;
5730;SDS011;2890;51.950;7.668;2023-09-18T10:06:44;7.10;;;2.80;;
5730;SDS011;2890;51.950;7.668;2023-09-18T10:09:11;3.20;;;2.70;;
5730;SDS011;2890;51.950;7.668;2023-09-18T10:11:48;3.10;;;2.03;;
5730;SDS011;2890;51.950;7.668;2023-09-18T10:14:26;7.33;;;2.50;;
5730;SDS011;2890;51.950;7.668;2023-09-18T10:16:56;2.53;;;2.00;;
5730;SDS011;2890;51.950;7.668;2023-09-18T10:19:38;5.50;;;2.10;;
5730;SDS011;2890;51.950;7.668;2023-09-18T10:22:20;3.60;;;2.30;;
5730;SDS011;2890;51.950;7.668;2023-09-18T10:24:59;4.43;;;2.43;;
5730;SDS011;2890;51.950;7.668;2023-09-18T10:27:38;7.17;;;2.40;;
5730;SDS011;2890;51.950;7.668;2023-09-18T10:30:13;3.77;;;1.93;;
5730;SDS011;2890;51.950;7.668;2023-09-18T10:32:48;3.50;;;2.20;;
5730;SDS011;2890;51.950;7.668;2023-09-18T10:35:20;4.20;;;2.50;;
5730;SDS011;2890;51.950;7.668;2023-09-18T10:37:54;3.13;;;2.00;;
5730;SDS011;2890;51.950;7.668;2023-09-18T10:40:27;5.80;;;2.77;;
5730;SDS011;2890;51.950;7.668;2023-09-18T10:43:00;8.03;;;2.40;;
5730;SDS011;2890;51.950;7.668;2023-09-18T10:45:35;3.00;;;2.40;;
5730;SDS011;2890;51.950;7.668;2023-09-18T10:48:09;2.67;;;2.00;;
5730;SDS011;2890;51.950;7.668;2023-09-18T10:50:42;4.00;;;2.67;;
5730;SDS011;2890;51.950;7.668;2023-09-18T10:53:16;7.13;;;1.90;;
5730;SDS011;2890;51.950;7.668;2023-09-18T10:55:44;3.60;;;1.90;;
5730;SDS011;2890;51.950;7.668;2023-09-18T10:58:22;3.37;;;2.00;;
5730;SDS011;2890;51.950;7.668;2023-09-18T11:00:50;4.93;;;1.90;;
5730;SDS011;2890;51.950;7.668;2023-09-18T11:03:23;3.87;;;2.40;;
5730;SDS011;2890;51.950;7.668;2023-09-18T11:06:04;2.83;;;1.50;;
5730;SDS011;2890;51.950;7.668;2023-09-18T11:08:44;5.27;;;1.77;;
5730;SDS011;2890;51.950;7.668;2023-09-18T11:11:19;2.27;;;1.70;;
5730;SDS011;2890;51.950;7.668;2023-09-18T11:13:52;3.97;;;1.70;;
5730;SDS011;2890;51.950;7.668;2023-09-18T11:16:33;2.30;;;1.63;;
5730;SDS011;2890;51.950;7.668;2023-09-18T11:19:08;3.40;;;1.87;;
5730;SDS011;2890;51.950;7.668;2023-09-18T11:21:42;3.00;;;1.67;;
5730;SDS011;2890;51.950;7.668;2023-09-18T11:24:16;3.27;;;1.70;;
5730;SDS011;2890;51.950;7.668;2023-09-18T11:26:51;3.27;;;1.87;;
5730;SDS011;2890;51.950;7.668;2023-09-18T11:29:24;4.43;;;1.80;;
5730;SDS011;2890;51.950;7.668;2023-09-18T11:31:58;3.70;;;1.80;;
5730;SDS011;2890;51.950;7.668;2023-09-18T11:34:31;4.63;;;2.40;;
5730;SDS011;2890;51.950;7.668;2023-09-18T11:37:18;2.20;;;1.83;;
5730;SDS011;2890;51.950;7.668;2023-09-18T11:39:53;4.03;;;1.80;;
5730;SDS011;2890;51.950;7.668;2023-09-18T11:42:26;3.67;;;1.73;;
5730;SDS011;2890;51.950;7.668;2023-09-18T11:44:58;2.73;;;2.07;;
5730;SDS011;2890;51.950;7.668;2023-09-18T11:47:33;2.10;;;1.57;;
5730;SDS011;2890;51.950;7.668;2023-09-18T11:50:09;2.37;;;2.00;;
5730;SDS011;2890;51.950;7.668;2023-09-18T11:52:45;4.30;;;1.90;;
5730;SDS011;2890;51.950;7.668;2023-09-18T11:55:13;5.70;;;1.70;;
5730;SDS011;2890;51.950;7.668;2023-09-18T11:57:39;2.77;;;1.70;;
5730;SDS011;2890;51.950;7.668;2023-09-18T12:00:22;3.43;;;2.00;;
5730;SDS011;2890;51.950;7.668;2023-09-18T12:02:55;3.70;;;2.00;;
5730;SDS011;2890;51.950;7.668;2023-09-18T12:05:41;4.10;;;2.20;;
5730;SDS011;2890;51.950;7.668;2023-09-18T12:08:08;2.90;;;1.93;;
5730;SDS011;2890;51.950;7.668;2023-09-18T12:10:37;2.63;;;2.00;;
5730;SDS011;2890;51.950;7.668;2023-09-18T12:13:10;3.67;;;2.00;;
5730;SDS011;2890;51.950;7.668;2023-09-18T12:15:37;4.90;;;2.20;;
5730;SDS011;2890;51.950;7.668;2023-09-18T12:18:07;3.10;;;1.70;;
5730;SDS011;2890;51.950;7.668;2023-09-18T12:20:46;4.63;;;2.10;;
5730;SDS011;2890;51.950;7.668;2023-09-18T12:23:21;3.03;;;2.07;;
5730;SDS011;2890;51.950;7.668;2023-09-18T12:25:55;2.20;;;1.80;;
5730;SDS011;2890;51.950;7.668;2023-09-18T12:28:24;3.47;;;2.40;;
5730;SDS011;2890;51.950;7.668;2023-09-18T12:30:53;2.80;;;2.03;;
5730;SDS011;2890;51.950;7.668;2023-09-18T12:33:21;3.00;;;1.97;;
5730;SDS011;2890;51.950;7.668;2023-09-18T12:35:48;6.53;;;2.53;;
5730;SDS011;2890;51.950;7.668;2023-09-18T12:38:15;3.50;;;2.53;;
5730;SDS011;2890;51.950;7.668;2023-09-18T12:40:53;7.20;;;2.23;;
5730;SDS011;2890;51.950;7.668;2023-09-18T12:43:20;4.97;;;1.83;;
5730;SDS011;2890;51.950;7.668;2023-09-18T12:45:54;5.30;;;2.00;;
5730;SDS011;2890;51.950;7.668;2023-09-18T12:48:22;5.20;;;2.20;;
5730;SDS011;2890;51.950;7.668;2023-09-18T12:50:54;9.70;;;1.90;;
5730;SDS011;2890;51.950;7.668;2023-09-18T12:53:21;3.80;;;2.40;;
5730;SDS011;2890;51.950;7.668;2023-09-18T12:56:05;2.83;;;2.07;;
5730;SDS011;2890;51.950;7.668;2023-09-18T12:58:40;7.50;;;2.23;;
5730;SDS011;2890;51.950;7.668;2023-09-18T13:01:13;3.13;;;2.00;;
5730;SDS011;2890;51.950;7.668;2023-09-18T13:03:41;2.37;;;2.17;;
5730;SDS011;2890;51.950;7.668;2023-09-18T13:06:15;3.00;;;1.80;;
5730;SDS011;2890;51.950;7.668;2023-09-18T13:08:49;3.87;;;2.23;;
5730;SDS011;2890;51.950;7.668;2023-09-18T13:11:19;3.47;;;2.50;;
5730;SDS011;2890;51.950;7.668;2023-09-18T13:13:56;4.27;;;2.53;;
5730;SDS011;2890;51.950;7.668;2023-09-18T13:16:30;3.07;;;2.10;;
5730;SDS011;2890;51.950;7.668;2023-09-18T13:19:03;4.13;;;2.43;;
5730;SDS011;2890;51.950;7.668;2023-09-18T13:21:33;5.10;;;1.97;;
5730;SDS011;2890;51.950;7.668;2023-09-18T13:24:04;5.60;;;2.60;;
5730;SDS011;2890;51.950;7.668;2023-09-18T13:26:35;3.10;;;2.67;;
5730;SDS011;2890;51.950;7.668;2023-09-18T13:29:06;3.93;;;2.30;;
5730;SDS011;2890;51.950;7.668;2023-09-18T13:31:37;2.97;;;2.40;;
5730;SDS011;2890;51.950;7.668;2023-09-18T13:34:03;3.77;;;2.20;;
5730;SDS011;2890;51.950;7.668;2023-09-18T13:36:31;5.07;;;2.60;;
5730;SDS011;2890;51.950;7.668;2023-09-18T13:38:58;5.37;;;2.70;;
5730;SDS011;2890;51.950;7.668;2023-09-18T13:41:25;2.90;;;2.67;;
5730;SDS011;2890;51.950;7.668;2023-09-18T13:43:54;3.03;;;2.60;;
5730;SDS011;2890;51.950;7.668;2023-09-18T13:46:21;3.67;;;2.77;;
5730;SDS011;2890;51.950;7.668;2023-09-18T13:48:49;6.43;;;2.20;;
5730;SDS011;2890;51.950;7.668;2023-09-18T13:51:16;5.57;;;2.60;;
5730;SDS011;2890;51.950;7.668;2023-09-18T13:53:42;3.37;;;2.73;;
5730;SDS011;2890;51.950;7.668;2023-09-18T13:56:09;2.67;;;2.10;;
5730;SDS011;2890;51.950;7.668;2023-09-18T13:58:35;3.60;;;2.50;;
5730;SDS011;2890;51.950;7.668;2023-09-18T14:01:07;6.77;;;2.83;;
5730;SDS011;2890;51.950;7.668;2023-09-18T14:03:34;4.27;;;2.60;;
5730;SDS011;2890;51.950;7.668;2023-09-18T14:06:02;3.87;;;2.43;;
5730;SDS011;2890;51.950;7.668;2023-09-18T14:08:30;3.93;;;2.30;;
5730;SDS011;2890;51.950;7.668;2023-09-18T14:10:58;5.10;;;2.47;;
5730;SDS011;2890;51.950;7.668;2023-09-18T14:13:31;4.30;;;2.60;;
5730;SDS011;2890;51.950;7.668;2023-09-18T14:16:02;2.90;;;2.53;;
5730;SDS011;2890;51.950;7.668;2023-09-18T14:18:30;4.60;;;2.40;;
5730;SDS011;2890;51.950;7.668;2023-09-18T14:21:05;3.80;;;2.47;;
5730;SDS011;2890;51.950;7.668;2023-09-18T14:23:38;4.63;;;2.93;;
5730;SDS011;2890;51.950;7.668;2023-09-18T14:26:05;5.27;;;3.20;;
5730;SDS011;2890;51.950;7.668;2023-09-18T14:28:32;4.20;;;3.20;;
5730;SDS011;2890;51.950;7.668;2023-09-18T14:30:59;2.80;;;2.50;;
5730;SDS011;2890;51.950;7.668;2023-09-18T14:33:32;3.53;;;2.40;;
5730;SDS011;2890;51.950;7.668;2023-09-18T14:35:58;3.33;;;2.50;;
5730;SDS011;2890;51.950;7.668;2023-09-18T14:38:25;3.10;;;2.80;;
5730;SDS011;2890;51.950;7.668;2023-09-18T14:40:51;4.83;;;2.53;;
5730;SDS011;2890;51.950;7.668;2023-09-18T14:43:17;4.70;;;2.30;;
5730;SDS011;2890;51.950;7.668;2023-09-18T14:45:44;3.13;;;2.50;;
5730;SDS011;2890;51.950;7.668;2023-09-18T14:48:10;2.80;;;2.60;;
5730;SDS011;2890;51.950;7.668;2023-09-18T14:50:38;3.20;;;2.30;;
5730;SDS011;2890;51.950;7.668;2023-09-18T14:53:05;3.40;;;2.53;;
5730;SDS011;2890;51.950;7.668;2023-09-18T14:55:32;5.47;;;2.70;;
5730;SDS011;2890;51.950;7.668;2023-09-18T14:57:59;6.03;;;2.00;;
5730;SDS011;2890;51.950;7.668;2023-09-18T15:00:26;4.50;;;2.60;;
5730;SDS011;2890;51.950;7.668;2023-09-18T15:02:54;4.73;;;2.70;;
5730;SDS011;2890;51.950;7.668;2023-09-18T15:05:20;6.77;;;2.30;;
5730;SDS011;2890;51.950;7.668;2023-09-18T15:07:48;2.20;;;1.97;;
5730;SDS011;2890;51.950;7.668;2023-09-18T15:10:14;3.53;;;1.67;;
5730;SDS011;2890;51.950;7.668;2023-09-18T15:12:41;2.57;;;2.20;;
5730;SDS011;2890;51.950;7.668;2023-09-18T15:15:08;4.00;;;2.17;;
5730;SDS011;2890;51.950;7.668;2023-09-18T15:17:35;3.40;;;2.20;;
5730;SDS011;2890;51.950;7.668;2023-09-18T15:20:02;5.70;;;2.23;;
5730;SDS011;2890;51.950;7.668;2023-09-18T15:22:29;3.73;;;1.90;;
5730;SDS011;2890;51.950;7.668;2023-09-18T15:24:57;4.10;;;1.87;;
5730;SDS011;2890;51.950;7.668;2023-09-18T15:27:23;2.43;;;2.13;;
5730;SDS011;2890;51.950;7.668;2023-09-18T15:29:50;5.60;;;2.10;;
5730;SDS011;2890;51.950;7.668;2023-09-18T15:32:16;3.63;;;2.03;;
5730;SDS011;2890;51.950;7.668;2023-09-18T15:34:45;3.00;;;2.10;;
5730;SDS011;2890;51.950;7.668;2023-09-18T15:37:13;2.53;;;2.33;;